sensor_id;sensor_type;location;lat;lon;timestamp;P1;durP1;ratioP1;P2;durP2;ratioP2
71665;SDS011;59503;53.486;10.196;2023-02-28T00:01:41;13.73;;;5.47;;
71665;SDS011;59503;53.486;10.196;2023-02-28T00:04:07;13.20;;;5.80;;
71665;SDS011;59503;53.486;10.196;2023-02-28T00:06:34;15.13;;;5.80;;
71665;SDS011;59503;53.486;10.196;2023-02-28T00:08:59;11.45;;;5.35;;
71665;SDS011;59503;53.486;10.196;2023-02-28T00:11:25;13.93;;;6.10;;
71665;SDS011;59503;53.486;10.196;2023-02-28T00:13:50;11.47;;;6.03;;
71665;SDS011;59503;53.486;10.196;2023-02-28T00:16:18;16.48;;;6.63;;
71665;SDS011;59503;53.486;10.196;2023-02-28T00:18:45;12.73;;;5.93;;
71665;SDS011;59503;53.486;10.196;2023-02-28T00:21:12;13.65;;;6.13;;
71665;SDS011;59503;53.486;10.196;2023-02-28T00:23:37;13.83;;;6.90;;
71665;SDS011;59503;53.486;10.196;2023-02-28T00:26:03;9.83;;;5.00;;
71665;SDS011;59503;53.486;10.196;2023-02-28T00:28:29;14.17;;;5.53;;
71665;SDS011;59503;53.486;10.196;2023-02-28T00:30:54;12.50;;;5.50;;
71665;SDS011;59503;53.486;10.196;2023-02-28T00:33:20;10.77;;;5.77;;
71665;SDS011;59503;53.486;10.196;2023-02-28T00:35:45;11.70;;;5.72;;
71665;SDS011;59503;53.486;10.196;2023-02-28T00:38:12;9.97;;;4.93;;
71665;SDS011;59503;53.486;10.196;2023-02-28T00:40:38;12.65;;;4.68;;
71665;SDS011;59503;53.486;10.196;2023-02-28T00:43:03;12.20;;;5.43;;
71665;SDS011;59503;53.486;10.196;2023-02-28T00:45:29;12.73;;;4.87;;
71665;SDS011;59503;53.486;10.196;2023-02-28T00:47:55;10.20;;;4.78;;
71665;SDS011;59503;53.486;10.196;2023-02-28T00:50:20;11.73;;;4.67;;
71665;SDS011;59503;53.486;10.196;2023-02-28T00:52:46;10.30;;;4.73;;
71665;SDS011;59503;53.486;10.196;2023-02-28T00:55:12;9.70;;;4.90;;
71665;SDS011;59503;53.486;10.196;2023-02-28T00:57:38;11.63;;;5.13;;
71665;SDS011;59503;53.486;10.196;2023-02-28T01:00:04;14.13;;;4.72;;
71665;SDS011;59503;53.486;10.196;2023-02-28T01:02:30;8.75;;;4.80;;
71665;SDS011;59503;53.486;10.196;2023-02-28T01:04:55;13.43;;;4.87;;
71665;SDS011;59503;53.486;10.196;2023-02-28T01:07:21;11.80;;;4.78;;
71665;SDS011;59503;53.486;10.196;2023-02-28T01:09:48;9.40;;;4.57;;
71665;SDS011;59503;53.486;10.196;2023-02-28T01:12:13;10.70;;;4.97;;
71665;SDS011;59503;53.486;10.196;2023-02-28T01:14:39;10.20;;;4.82;;
71665;SDS011;59503;53.486;10.196;2023-02-28T01:17:04;16.53;;;5.33;;
71665;SDS011;59503;53.486;10.196;2023-02-28T01:19:30;13.32;;;4.85;;
71665;SDS011;59503;53.486;10.196;2023-02-28T01:21:56;13.33;;;4.63;;
71665;SDS011;59503;53.486;10.196;2023-02-28T01:24:21;12.50;;;4.73;;
71665;SDS011;59503;53.486;10.196;2023-02-28T01:26:46;12.80;;;5.75;;
71665;SDS011;59503;53.486;10.196;2023-02-28T01:29:12;9.63;;;4.53;;
71665;SDS011;59503;53.486;10.196;2023-02-28T01:31:37;13.23;;;5.40;;
71665;SDS011;59503;53.486;10.196;2023-02-28T01:34:03;13.30;;;5.40;;
71665;SDS011;59503;53.486;10.196;2023-02-28T01:36:28;11.15;;;4.93;;
71665;SDS011;59503;53.486;10.196;2023-02-28T01:38:54;11.80;;;4.93;;
71665;SDS011;59503;53.486;10.196;2023-02-28T01:41:21;12.27;;;5.15;;
71665;SDS011;59503;53.486;10.196;2023-02-28T01:46:14;14.47;;;5.43;;
71665;SDS011;59503;53.486;10.196;2023-02-28T01:48:42;11.43;;;5.28;;
71665;SDS011;59503;53.486;10.196;2023-02-28T01:51:22;10.53;;;4.70;;
71665;SDS011;59503;53.486;10.196;2023-02-28T01:53:55;12.75;;;4.78;;
71665;SDS011;59503;53.486;10.196;2023-02-28T01:56:24;9.93;;;4.60;;
71665;SDS011;59503;53.486;10.196;2023-02-28T01:58:54;11.55;;;4.28;;
71665;SDS011;59503;53.486;10.196;2023-02-28T02:01:20;9.65;;;4.57;;
71665;SDS011;59503;53.486;10.196;2023-02-28T02:03:48;13.23;;;4.00;;
71665;SDS011;59503;53.486;10.196;2023-02-28T02:06:20;10.82;;;3.67;;
71665;SDS011;59503;53.486;10.196;2023-02-28T02:08:50;9.88;;;3.97;;
71665;SDS011;59503;53.486;10.196;2023-02-28T02:11:18;12.18;;;3.45;;
71665;SDS011;59503;53.486;10.196;2023-02-28T02:13:53;12.23;;;4.00;;
71665;SDS011;59503;53.486;10.196;2023-02-28T02:38:18;7.93;;;3.47;;
71665;SDS011;59503;53.486;10.196;2023-02-28T02:41:08;8.80;;;3.85;;
71665;SDS011;59503;53.486;10.196;2023-02-28T02:43:54;11.87;;;3.70;;
71665;SDS011;59503;53.486;10.196;2023-02-28T02:46:43;12.68;;;4.00;;
71665;SDS011;59503;53.486;10.196;2023-02-28T02:49:12;10.40;;;3.70;;
71665;SDS011;59503;53.486;10.196;2023-02-28T02:51:42;8.55;;;3.55;;
71665;SDS011;59503;53.486;10.196;2023-02-28T02:57:52;12.07;;;4.47;;
71665;SDS011;59503;53.486;10.196;2023-02-28T03:00:02;12.48;;;4.53;;
71665;SDS011;59503;53.486;10.196;2023-02-28T03:02:30;11.52;;;4.90;;
71665;SDS011;59503;53.486;10.196;2023-02-28T03:05:00;10.30;;;4.60;;
71665;SDS011;59503;53.486;10.196;2023-02-28T03:07:29;9.60;;;4.18;;
71665;SDS011;59503;53.486;10.196;2023-02-28T03:09:55;11.10;;;4.60;;
71665;SDS011;59503;53.486;10.196;2023-02-28T03:12:32;12.88;;;4.22;;
71665;SDS011;59503;53.486;10.196;2023-02-28T03:17:47;9.87;;;4.50;;
71665;SDS011;59503;53.486;10.196;2023-02-28T03:25:42;10.55;;;5.25;;
71665;SDS011;59503;53.486;10.196;2023-02-28T03:28:41;10.93;;;5.20;;
71665;SDS011;59503;53.486;10.196;2023-02-28T03:31:24;12.67;;;4.63;;
71665;SDS011;59503;53.486;10.196;2023-02-28T03:36:46;12.77;;;5.07;;
71665;SDS011;59503;53.486;10.196;2023-02-28T03:39:19;11.88;;;5.00;;
71665;SDS011;59503;53.486;10.196;2023-02-28T03:41:51;12.15;;;5.25;;
71665;SDS011;59503;53.486;10.196;2023-02-28T03:44:24;13.47;;;5.00;;
71665;SDS011;59503;53.486;10.196;2023-02-28T03:46:57;12.30;;;4.85;;
71665;SDS011;59503;53.486;10.196;2023-02-28T03:49:32;11.50;;;5.00;;
71665;SDS011;59503;53.486;10.196;2023-02-28T03:52:04;10.77;;;4.40;;
71665;SDS011;59503;53.486;10.196;2023-02-28T03:54:35;14.20;;;4.88;;
71665;SDS011;59503;53.486;10.196;2023-02-28T04:00:05;13.48;;;4.75;;
71665;SDS011;59503;53.486;10.196;2023-02-28T04:02:40;12.25;;;4.78;;
71665;SDS011;59503;53.486;10.196;2023-02-28T04:05:06;12.47;;;5.20;;
71665;SDS011;59503;53.486;10.196;2023-02-28T04:07:32;11.90;;;5.25;;
71665;SDS011;59503;53.486;10.196;2023-02-28T04:09:58;14.77;;;5.70;;
71665;SDS011;59503;53.486;10.196;2023-02-28T04:12:24;12.52;;;5.07;;
71665;SDS011;59503;53.486;10.196;2023-02-28T04:14:49;17.40;;;5.70;;
71665;SDS011;59503;53.486;10.196;2023-02-28T04:17:15;11.33;;;4.83;;
71665;SDS011;59503;53.486;10.196;2023-02-28T04:19:41;13.50;;;5.07;;
71665;SDS011;59503;53.486;10.196;2023-02-28T04:22:07;12.52;;;5.07;;
71665;SDS011;59503;53.486;10.196;2023-02-28T04:24:33;11.63;;;5.47;;
71665;SDS011;59503;53.486;10.196;2023-02-28T04:26:59;15.57;;;5.30;;
71665;SDS011;59503;53.486;10.196;2023-02-28T04:29:28;12.30;;;4.80;;
71665;SDS011;59503;53.486;10.196;2023-02-28T04:31:56;12.93;;;4.80;;
71665;SDS011;59503;53.486;10.196;2023-02-28T04:34:23;11.32;;;4.38;;
71665;SDS011;59503;53.486;10.196;2023-02-28T04:36:49;8.75;;;4.82;;
71665;SDS011;59503;53.486;10.196;2023-02-28T04:39:15;11.50;;;4.25;;
71665;SDS011;59503;53.486;10.196;2023-02-28T04:41:43;10.38;;;4.55;;
71665;SDS011;59503;53.486;10.196;2023-02-28T04:44:09;11.63;;;4.53;;
71665;SDS011;59503;53.486;10.196;2023-02-28T04:46:34;9.32;;;4.30;;
71665;SDS011;59503;53.486;10.196;2023-02-28T04:49:00;9.90;;;4.07;;
71665;SDS011;59503;53.486;10.196;2023-02-28T04:51:25;11.70;;;4.33;;
71665;SDS011;59503;53.486;10.196;2023-02-28T04:53:51;11.50;;;4.53;;
71665;SDS011;59503;53.486;10.196;2023-02-28T04:56:17;9.55;;;3.90;;
71665;SDS011;59503;53.486;10.196;2023-02-28T04:58:43;12.73;;;4.28;;
71665;SDS011;59503;53.486;10.196;2023-02-28T05:03:45;10.05;;;4.32;;
71665;SDS011;59503;53.486;10.196;2023-02-28T05:06:12;13.02;;;4.80;;
71665;SDS011;59503;53.486;10.196;2023-02-28T05:08:38;13.30;;;4.85;;
71665;SDS011;59503;53.486;10.196;2023-02-28T05:11:05;9.03;;;4.97;;
71665;SDS011;59503;53.486;10.196;2023-02-28T05:13:33;11.18;;;4.72;;
71665;SDS011;59503;53.486;10.196;2023-02-28T05:15:59;10.90;;;5.03;;
71665;SDS011;59503;53.486;10.196;2023-02-28T05:18:25;8.80;;;4.17;;
71665;SDS011;59503;53.486;10.196;2023-02-28T05:20:50;10.97;;;4.60;;
71665;SDS011;59503;53.486;10.196;2023-02-28T05:23:16;10.95;;;4.43;;
71665;SDS011;59503;53.486;10.196;2023-02-28T05:25:44;12.17;;;4.60;;
71665;SDS011;59503;53.486;10.196;2023-02-28T05:28:09;10.88;;;4.53;;
71665;SDS011;59503;53.486;10.196;2023-02-28T05:30:35;10.40;;;4.37;;
71665;SDS011;59503;53.486;10.196;2023-02-28T05:33:00;11.37;;;4.63;;
71665;SDS011;59503;53.486;10.196;2023-02-28T05:35:25;9.97;;;5.17;;
71665;SDS011;59503;53.486;10.196;2023-02-28T05:37:51;10.50;;;4.28;;
71665;SDS011;59503;53.486;10.196;2023-02-28T05:40:17;10.07;;;4.40;;
71665;SDS011;59503;53.486;10.196;2023-02-28T05:42:45;9.60;;;4.50;;
71665;SDS011;59503;53.486;10.196;2023-02-28T05:45:11;10.68;;;5.03;;
71665;SDS011;59503;53.486;10.196;2023-02-28T05:47:36;11.37;;;4.53;;
71665;SDS011;59503;53.486;10.196;2023-02-28T05:50:02;10.60;;;4.43;;
71665;SDS011;59503;53.486;10.196;2023-02-28T05:52:28;14.18;;;4.90;;
71665;SDS011;59503;53.486;10.196;2023-02-28T05:54:55;14.10;;;5.75;;
71665;SDS011;59503;53.486;10.196;2023-02-28T05:57:20;11.45;;;4.70;;
71665;SDS011;59503;53.486;10.196;2023-02-28T05:59:46;14.95;;;5.43;;
71665;SDS011;59503;53.486;10.196;2023-02-28T06:02:12;15.07;;;5.67;;
71665;SDS011;59503;53.486;10.196;2023-02-28T06:04:39;16.85;;;5.28;;
71665;SDS011;59503;53.486;10.196;2023-02-28T06:07:06;11.73;;;5.47;;
71665;SDS011;59503;53.486;10.196;2023-02-28T06:09:32;13.63;;;5.65;;
71665;SDS011;59503;53.486;10.196;2023-02-28T06:12:01;14.17;;;5.67;;
71665;SDS011;59503;53.486;10.196;2023-02-28T06:14:28;13.18;;;4.88;;
71665;SDS011;59503;53.486;10.196;2023-02-28T06:16:56;16.67;;;5.13;;
71665;SDS011;59503;53.486;10.196;2023-02-28T06:19:21;10.93;;;5.00;;
71665;SDS011;59503;53.486;10.196;2023-02-28T06:21:48;14.05;;;5.57;;
71665;SDS011;59503;53.486;10.196;2023-02-28T06:24:15;13.27;;;5.07;;
71665;SDS011;59503;53.486;10.196;2023-02-28T06:26:41;12.57;;;5.37;;
71665;SDS011;59503;53.486;10.196;2023-02-28T06:29:06;15.30;;;5.93;;
71665;SDS011;59503;53.486;10.196;2023-02-28T06:31:32;15.50;;;5.30;;
71665;SDS011;59503;53.486;10.196;2023-02-28T06:33:58;12.00;;;4.70;;
71665;SDS011;59503;53.486;10.196;2023-02-28T06:36:23;15.32;;;5.00;;
71665;SDS011;59503;53.486;10.196;2023-02-28T06:38:48;13.60;;;5.47;;
71665;SDS011;59503;53.486;10.196;2023-02-28T06:41:19;12.45;;;6.43;;
71665;SDS011;59503;53.486;10.196;2023-02-28T06:43:45;12.67;;;5.43;;
71665;SDS011;59503;53.486;10.196;2023-02-28T06:46:12;15.82;;;6.13;;
71665;SDS011;59503;53.486;10.196;2023-02-28T06:48:38;14.10;;;5.90;;
71665;SDS011;59503;53.486;10.196;2023-02-28T06:51:09;12.88;;;6.13;;
71665;SDS011;59503;53.486;10.196;2023-02-28T06:53:38;11.18;;;5.93;;
71665;SDS011;59503;53.486;10.196;2023-02-28T06:56:07;17.30;;;6.93;;
71665;SDS011;59503;53.486;10.196;2023-02-28T06:58:38;11.95;;;5.68;;
71665;SDS011;59503;53.486;10.196;2023-02-28T07:01:04;11.73;;;5.78;;
71665;SDS011;59503;53.486;10.196;2023-02-28T07:03:30;14.88;;;6.00;;
71665;SDS011;59503;53.486;10.196;2023-02-28T07:05:56;13.98;;;6.32;;
71665;SDS011;59503;53.486;10.196;2023-02-28T07:08:23;15.47;;;6.30;;
71665;SDS011;59503;53.486;10.196;2023-02-28T07:10:52;15.63;;;6.00;;
71665;SDS011;59503;53.486;10.196;2023-02-28T07:13:19;14.80;;;5.80;;
71665;SDS011;59503;53.486;10.196;2023-02-28T07:15:52;14.17;;;5.93;;
71665;SDS011;59503;53.486;10.196;2023-02-28T07:18:18;13.93;;;5.85;;
71665;SDS011;59503;53.486;10.196;2023-02-28T07:20:44;12.63;;;5.27;;
71665;SDS011;59503;53.486;10.196;2023-02-28T07:23:09;11.10;;;5.22;;
71665;SDS011;59503;53.486;10.196;2023-02-28T07:25:35;8.43;;;4.60;;
71665;SDS011;59503;53.486;10.196;2023-02-28T07:28:00;13.77;;;5.37;;
71665;SDS011;59503;53.486;10.196;2023-02-28T07:30:26;12.93;;;4.72;;
71665;SDS011;59503;53.486;10.196;2023-02-28T07:32:51;10.87;;;5.07;;
71665;SDS011;59503;53.486;10.196;2023-02-28T07:35:16;12.97;;;4.30;;
71665;SDS011;59503;53.486;10.196;2023-02-28T07:37:42;9.23;;;4.50;;
71665;SDS011;59503;53.486;10.196;2023-02-28T07:40:08;11.77;;;4.20;;
71665;SDS011;59503;53.486;10.196;2023-02-28T07:42:36;9.77;;;4.43;;
71665;SDS011;59503;53.486;10.196;2023-02-28T07:45:03;6.77;;;3.93;;
71665;SDS011;59503;53.486;10.196;2023-02-28T07:47:30;10.35;;;4.25;;
71665;SDS011;59503;53.486;10.196;2023-02-28T07:49:56;8.95;;;4.30;;
71665;SDS011;59503;53.486;10.196;2023-02-28T07:52:22;9.15;;;4.50;;
71665;SDS011;59503;53.486;10.196;2023-02-28T07:54:48;11.40;;;4.97;;
71665;SDS011;59503;53.486;10.196;2023-02-28T07:57:14;9.00;;;4.28;;
71665;SDS011;59503;53.486;10.196;2023-02-28T07:59:40;8.43;;;3.90;;
71665;SDS011;59503;53.486;10.196;2023-02-28T08:02:05;8.93;;;3.80;;
71665;SDS011;59503;53.486;10.196;2023-02-28T08:04:31;9.20;;;3.80;;
71665;SDS011;59503;53.486;10.196;2023-02-28T08:06:57;8.65;;;3.92;;
71665;SDS011;59503;53.486;10.196;2023-02-28T08:09:23;7.85;;;3.97;;
71665;SDS011;59503;53.486;10.196;2023-02-28T08:11:49;8.90;;;4.23;;
71665;SDS011;59503;53.486;10.196;2023-02-28T08:14:14;8.80;;;4.00;;
71665;SDS011;59503;53.486;10.196;2023-02-28T08:16:40;8.57;;;4.37;;
71665;SDS011;59503;53.486;10.196;2023-02-28T08:19:05;7.80;;;3.53;;
71665;SDS011;59503;53.486;10.196;2023-02-28T08:21:31;9.20;;;4.00;;
71665;SDS011;59503;53.486;10.196;2023-02-28T08:23:57;8.63;;;3.60;;
71665;SDS011;59503;53.486;10.196;2023-02-28T08:26:23;11.63;;;3.83;;
71665;SDS011;59503;53.486;10.196;2023-02-28T08:28:48;8.23;;;3.73;;
71665;SDS011;59503;53.486;10.196;2023-02-28T08:31:14;5.93;;;3.57;;
71665;SDS011;59503;53.486;10.196;2023-02-28T08:33:41;7.82;;;3.83;;
71665;SDS011;59503;53.486;10.196;2023-02-28T08:36:09;7.47;;;3.55;;
71665;SDS011;59503;53.486;10.196;2023-02-28T08:38:36;6.97;;;3.20;;
71665;SDS011;59503;53.486;10.196;2023-02-28T08:41:02;8.03;;;3.70;;
71665;SDS011;59503;53.486;10.196;2023-02-28T08:43:32;9.50;;;3.58;;
71665;SDS011;59503;53.486;10.196;2023-02-28T08:45:58;5.47;;;3.60;;
71665;SDS011;59503;53.486;10.196;2023-02-28T08:48:27;7.57;;;3.60;;
71665;SDS011;59503;53.486;10.196;2023-02-28T08:51:01;7.18;;;3.38;;
71665;SDS011;59503;53.486;10.196;2023-02-28T08:53:31;9.52;;;3.90;;
71665;SDS011;59503;53.486;10.196;2023-02-28T08:55:58;4.95;;;2.95;;
71665;SDS011;59503;53.486;10.196;2023-02-28T08:58:24;7.15;;;3.60;;
71665;SDS011;59503;53.486;10.196;2023-02-28T09:00:50;8.17;;;3.87;;
71665;SDS011;59503;53.486;10.196;2023-02-28T09:03:16;8.52;;;4.38;;
71665;SDS011;59503;53.486;10.196;2023-02-28T09:05:51;11.23;;;4.27;;
71665;SDS011;59503;53.486;10.196;2023-02-28T09:08:20;6.45;;;4.22;;
71665;SDS011;59503;53.486;10.196;2023-02-28T09:10:46;9.85;;;4.28;;
71665;SDS011;59503;53.486;10.196;2023-02-28T09:13:12;7.87;;;4.40;;
71665;SDS011;59503;53.486;10.196;2023-02-28T09:15:37;7.15;;;3.67;;
71665;SDS011;59503;53.486;10.196;2023-02-28T09:18:03;8.97;;;4.40;;
71665;SDS011;59503;53.486;10.196;2023-02-28T09:20:28;8.30;;;4.38;;
71665;SDS011;59503;53.486;10.196;2023-02-28T09:22:54;8.67;;;4.43;;
71665;SDS011;59503;53.486;10.196;2023-02-28T09:25:20;5.87;;;4.07;;
71665;SDS011;59503;53.486;10.196;2023-02-28T09:27:45;9.05;;;4.20;;
71665;SDS011;59503;53.486;10.196;2023-02-28T09:30:11;8.37;;;4.20;;
71665;SDS011;59503;53.486;10.196;2023-02-28T09:32:37;7.57;;;3.78;;
71665;SDS011;59503;53.486;10.196;2023-02-28T09:35:02;7.80;;;4.80;;
71665;SDS011;59503;53.486;10.196;2023-02-28T09:37:28;10.25;;;3.95;;
71665;SDS011;59503;53.486;10.196;2023-02-28T09:39:54;5.70;;;3.40;;
71665;SDS011;59503;53.486;10.196;2023-02-28T09:42:29;6.00;;;3.50;;
71665;SDS011;59503;53.486;10.196;2023-02-28T09:44:57;5.60;;;3.40;;
71665;SDS011;59503;53.486;10.196;2023-02-28T09:50:21;5.03;;;3.00;;
71665;SDS011;59503;53.486;10.196;2023-02-28T09:52:49;6.40;;;3.13;;
71665;SDS011;59503;53.486;10.196;2023-02-28T09:57:43;3.08;;;2.00;;
71665;SDS011;59503;53.486;10.196;2023-02-28T10:00:13;3.07;;;1.10;;
71665;SDS011;59503;53.486;10.196;2023-02-28T10:02:49;2.53;;;0.90;;
71665;SDS011;59503;53.486;10.196;2023-02-28T10:05:37;2.15;;;1.10;;
71665;SDS011;59503;53.486;10.196;2023-02-28T10:08:15;4.05;;;1.17;;
71665;SDS011;59503;53.486;10.196;2023-02-28T10:11:11;4.13;;;1.38;;
71665;SDS011;59503;53.486;10.196;2023-02-28T10:13:45;2.33;;;0.73;;
71665;SDS011;59503;53.486;10.196;2023-02-28T10:16:21;1.80;;;0.90;;
71665;SDS011;59503;53.486;10.196;2023-02-28T10:21:35;2.20;;;0.90;;
71665;SDS011;59503;53.486;10.196;2023-02-28T10:26:59;2.00;;;1.00;;
71665;SDS011;59503;53.486;10.196;2023-02-28T10:29:27;4.40;;;0.93;;
71665;SDS011;59503;53.486;10.196;2023-02-28T10:31:56;3.42;;;0.93;;
71665;SDS011;59503;53.486;10.196;2023-02-28T10:34:23;2.28;;;0.90;;
71665;SDS011;59503;53.486;10.196;2023-02-28T10:36:49;3.33;;;1.00;;
71665;SDS011;59503;53.486;10.196;2023-02-28T10:39:58;4.03;;;0.80;;
71665;SDS011;59503;53.486;10.196;2023-02-28T10:42:24;3.03;;;0.60;;
71665;SDS011;59503;53.486;10.196;2023-02-28T10:45:10;1.45;;;0.50;;
71665;SDS011;59503;53.486;10.196;2023-02-28T10:50:29;2.60;;;0.60;;
71665;SDS011;59503;53.486;10.196;2023-02-28T10:53:03;1.83;;;0.60;;
71665;SDS011;59503;53.486;10.196;2023-02-28T10:55:33;2.15;;;0.88;;
71665;SDS011;59503;53.486;10.196;2023-02-28T10:57:59;4.43;;;0.85;;
71665;SDS011;59503;53.486;10.196;2023-02-28T11:00:25;4.30;;;1.57;;
71665;SDS011;59503;53.486;10.196;2023-02-28T11:02:56;2.58;;;0.60;;
71665;SDS011;59503;53.486;10.196;2023-02-28T11:05:29;1.07;;;0.50;;
71665;SDS011;59503;53.486;10.196;2023-02-28T11:08:02;2.95;;;0.90;;
71665;SDS011;59503;53.486;10.196;2023-02-28T11:10:43;2.05;;;1.15;;
71665;SDS011;59503;53.486;10.196;2023-02-28T11:13:17;1.80;;;0.90;;
71665;SDS011;59503;53.486;10.196;2023-02-28T11:15:53;2.10;;;0.80;;
71665;SDS011;59503;53.486;10.196;2023-02-28T11:18:21;1.70;;;0.73;;
71665;SDS011;59503;53.486;10.196;2023-02-28T11:20:52;2.28;;;1.00;;
71665;SDS011;59503;53.486;10.196;2023-02-28T11:23:20;1.42;;;0.70;;
71665;SDS011;59503;53.486;10.196;2023-02-28T11:25:52;3.27;;;0.70;;
71665;SDS011;59503;53.486;10.196;2023-02-28T11:30:59;1.80;;;0.85;;
71665;SDS011;59503;53.486;10.196;2023-02-28T11:33:28;3.53;;;1.00;;
71665;SDS011;59503;53.486;10.196;2023-02-28T11:36:10;1.85;;;0.80;;
71665;SDS011;59503;53.486;10.196;2023-02-28T11:38:39;1.27;;;0.73;;
71665;SDS011;59503;53.486;10.196;2023-02-28T11:41:10;3.63;;;0.98;;
71665;SDS011;59503;53.486;10.196;2023-02-28T11:46:13;2.55;;;0.75;;
71665;SDS011;59503;53.486;10.196;2023-02-28T11:49:28;1.65;;;0.80;;
71665;SDS011;59503;53.486;10.196;2023-02-28T11:51:47;3.60;;;1.07;;
71665;SDS011;59503;53.486;10.196;2023-02-28T11:54:21;3.95;;;0.95;;
71665;SDS011;59503;53.486;10.196;2023-02-28T11:56:53;2.00;;;0.80;;
71665;SDS011;59503;53.486;10.196;2023-02-28T12:02:20;5.18;;;1.67;;
71665;SDS011;59503;53.486;10.196;2023-02-28T12:07:42;2.88;;;0.90;;
71665;SDS011;59503;53.486;10.196;2023-02-28T12:10:26;2.45;;;1.00;;
71665;SDS011;59503;53.486;10.196;2023-02-28T12:13:01;2.30;;;0.88;;
71665;SDS011;59503;53.486;10.196;2023-02-28T12:26:46;2.58;;;1.05;;
71665;SDS011;59503;53.486;10.196;2023-02-28T12:31:45;2.10;;;0.80;;
71665;SDS011;59503;53.486;10.196;2023-02-28T12:34:18;3.13;;;0.80;;
71665;SDS011;59503;53.486;10.196;2023-02-28T12:36:47;3.60;;;1.15;;
71665;SDS011;59503;53.486;10.196;2023-02-28T12:44:42;1.80;;;0.83;;
71665;SDS011;59503;53.486;10.196;2023-02-28T12:47:28;2.45;;;1.00;;
71665;SDS011;59503;53.486;10.196;2023-02-28T12:49:58;3.20;;;1.00;;
71665;SDS011;59503;53.486;10.196;2023-02-28T12:52:28;2.13;;;0.88;;
71665;SDS011;59503;53.486;10.196;2023-02-28T12:55:04;2.72;;;1.00;;
71665;SDS011;59503;53.486;10.196;2023-02-28T12:57:41;2.13;;;0.70;;
71665;SDS011;59503;53.486;10.196;2023-02-28T13:00:19;3.05;;;0.80;;
71665;SDS011;59503;53.486;10.196;2023-02-28T13:08:34;4.35;;;1.27;;
71665;SDS011;59503;53.486;10.196;2023-02-28T13:11:28;2.67;;;1.10;;
71665;SDS011;59503;53.486;10.196;2023-02-28T13:14:03;1.40;;;0.82;;
71665;SDS011;59503;53.486;10.196;2023-02-28T13:17:17;3.53;;;0.80;;
71665;SDS011;59503;53.486;10.196;2023-02-28T13:19:22;3.50;;;1.00;;
71665;SDS011;59503;53.486;10.196;2023-02-28T13:21:50;3.72;;;1.20;;
71665;SDS011;59503;53.486;10.196;2023-02-28T13:34:31;3.35;;;1.10;;
71665;SDS011;59503;53.486;10.196;2023-02-28T13:39:46;2.50;;;1.13;;
71665;SDS011;59503;53.486;10.196;2023-02-28T13:47:29;4.47;;;0.95;;
71665;SDS011;59503;53.486;10.196;2023-02-28T13:56:00;4.97;;;1.50;;
71665;SDS011;59503;53.486;10.196;2023-02-28T14:06:31;3.60;;;1.00;;
71665;SDS011;59503;53.486;10.196;2023-02-28T14:11:37;5.00;;;1.30;;
71665;SDS011;59503;53.486;10.196;2023-02-28T14:14:05;6.00;;;1.23;;
71665;SDS011;59503;53.486;10.196;2023-02-28T14:16:37;1.83;;;1.08;;
71665;SDS011;59503;53.486;10.196;2023-02-28T14:35:22;2.05;;;1.10;;
71665;SDS011;59503;53.486;10.196;2023-02-28T14:37:52;2.65;;;1.00;;
71665;SDS011;59503;53.486;10.196;2023-02-28T14:40:32;3.47;;;0.90;;
71665;SDS011;59503;53.486;10.196;2023-02-28T14:43:03;2.78;;;1.30;;
71665;SDS011;59503;53.486;10.196;2023-02-28T14:45:34;3.37;;;0.87;;
71665;SDS011;59503;53.486;10.196;2023-02-28T14:48:02;3.50;;;0.80;;
71665;SDS011;59503;53.486;10.196;2023-02-28T14:50:34;3.17;;;1.10;;
71665;SDS011;59503;53.486;10.196;2023-02-28T14:53:01;4.63;;;1.30;;
71665;SDS011;59503;53.486;10.196;2023-02-28T14:55:28;6.35;;;1.10;;
71665;SDS011;59503;53.486;10.196;2023-02-28T14:57:57;4.07;;;1.30;;
71665;SDS011;59503;53.486;10.196;2023-02-28T15:00:29;5.93;;;1.00;;
71665;SDS011;59503;53.486;10.196;2023-02-28T15:02:58;2.40;;;1.20;;
71665;SDS011;59503;53.486;10.196;2023-02-28T15:05:29;4.32;;;1.30;;
71665;SDS011;59503;53.486;10.196;2023-02-28T15:08:06;4.03;;;1.00;;
71665;SDS011;59503;53.486;10.196;2023-02-28T15:10:38;2.77;;;0.90;;
71665;SDS011;59503;53.486;10.196;2023-02-28T15:13:06;2.15;;;0.90;;
71665;SDS011;59503;53.486;10.196;2023-02-28T15:18:22;1.70;;;1.15;;
71665;SDS011;59503;53.486;10.196;2023-02-28T15:21:06;2.80;;;1.10;;
71665;SDS011;59503;53.486;10.196;2023-02-28T15:23:37;2.90;;;1.00;;
71665;SDS011;59503;53.486;10.196;2023-02-28T15:26:03;3.33;;;1.25;;
71665;SDS011;59503;53.486;10.196;2023-02-28T15:28:30;2.40;;;1.02;;
71665;SDS011;59503;53.486;10.196;2023-02-28T15:31:00;2.90;;;0.95;;
71665;SDS011;59503;53.486;10.196;2023-02-28T15:33:28;2.97;;;1.00;;
71665;SDS011;59503;53.486;10.196;2023-02-28T15:36:05;3.10;;;1.00;;
71665;SDS011;59503;53.486;10.196;2023-02-28T15:38:45;3.28;;;0.85;;
71665;SDS011;59503;53.486;10.196;2023-02-28T15:41:37;4.13;;;1.63;;
71665;SDS011;59503;53.486;10.196;2023-02-28T15:47:05;2.77;;;1.10;;
71665;SDS011;59503;53.486;10.196;2023-02-28T15:49:49;3.10;;;0.90;;
71665;SDS011;59503;53.486;10.196;2023-02-28T15:52:28;2.88;;;1.05;;
71665;SDS011;59503;53.486;10.196;2023-02-28T15:55:16;3.15;;;1.40;;
71665;SDS011;59503;53.486;10.196;2023-02-28T15:57:46;2.78;;;1.35;;
71665;SDS011;59503;53.486;10.196;2023-02-28T16:00:15;2.93;;;1.30;;
71665;SDS011;59503;53.486;10.196;2023-02-28T16:02:44;4.28;;;1.50;;
71665;SDS011;59503;53.486;10.196;2023-02-28T16:07:39;3.22;;;1.05;;
71665;SDS011;59503;53.486;10.196;2023-02-28T16:10:06;3.47;;;1.13;;
71665;SDS011;59503;53.486;10.196;2023-02-28T16:12:35;3.00;;;1.33;;
71665;SDS011;59503;53.486;10.196;2023-02-28T16:15:24;3.80;;;1.30;;
71665;SDS011;59503;53.486;10.196;2023-02-28T16:17:51;2.50;;;1.27;;
71665;SDS011;59503;53.486;10.196;2023-02-28T16:20:18;3.45;;;1.20;;
71665;SDS011;59503;53.486;10.196;2023-02-28T16:22:48;3.60;;;1.40;;
71665;SDS011;59503;53.486;10.196;2023-02-28T16:25:15;3.83;;;1.67;;
71665;SDS011;59503;53.486;10.196;2023-02-28T16:27:42;2.75;;;1.20;;
71665;SDS011;59503;53.486;10.196;2023-02-28T16:30:14;2.95;;;1.50;;
71665;SDS011;59503;53.486;10.196;2023-02-28T16:32:44;4.50;;;1.40;;
71665;SDS011;59503;53.486;10.196;2023-02-28T16:35:10;3.40;;;1.23;;
71665;SDS011;59503;53.486;10.196;2023-02-28T16:37:36;2.23;;;1.10;;
71665;SDS011;59503;53.486;10.196;2023-02-28T16:40:02;2.30;;;1.27;;
71665;SDS011;59503;53.486;10.196;2023-02-28T16:42:28;3.63;;;1.00;;
71665;SDS011;59503;53.486;10.196;2023-02-28T16:44:54;4.00;;;1.43;;
71665;SDS011;59503;53.486;10.196;2023-02-28T16:47:20;4.75;;;0.93;;
71665;SDS011;59503;53.486;10.196;2023-02-28T16:49:47;4.32;;;1.55;;
71665;SDS011;59503;53.486;10.196;2023-02-28T16:52:12;2.60;;;0.90;;
71665;SDS011;59503;53.486;10.196;2023-02-28T16:54:39;4.55;;;1.23;;
71665;SDS011;59503;53.486;10.196;2023-02-28T16:57:06;3.10;;;1.30;;
71665;SDS011;59503;53.486;10.196;2023-02-28T16:59:45;2.92;;;0.95;;
71665;SDS011;59503;53.486;10.196;2023-02-28T17:02:12;3.30;;;1.07;;
71665;SDS011;59503;53.486;10.196;2023-02-28T17:04:39;3.65;;;1.40;;
71665;SDS011;59503;53.486;10.196;2023-02-28T17:07:07;4.93;;;1.23;;
71665;SDS011;59503;53.486;10.196;2023-02-28T17:09:36;3.45;;;1.67;;
71665;SDS011;59503;53.486;10.196;2023-02-28T17:12:01;2.73;;;1.33;;
71665;SDS011;59503;53.486;10.196;2023-02-28T17:14:26;3.77;;;1.40;;